Time;durP1;ratioP1;P1;durP2;ratioP2;P2;SDS_P1;SDS_P2;PMS_P1;PMS_P2;Temp;Humidity;BMP_temperature;BMP_pressure;BME280_temperature;BME280_humidity;BME280_pressure;Samples;Min_cycle;Max_cycle;Signal;HPM_P1;HPM_P2
2023/12/07 00:02:14;;;;;;;1.63;1.52;;;;;;;;;;5125187;27;20028;-59
2023/12/07 00:04:40;;;;;;;2.22;1.98;;;;;;;;;;5120183;27;20142;-59
2023/12/07 00:07:06;;;;;;;1.90;1.70;;;;;;;;;;5124330;27;20042;-59
2023/12/07 00:09:32;;;;;;;2.15;1.95;;;;;;;;;;5122078;27;20042;-58
2023/12/07 00:11:58;;;;;;;1.88;1.70;;;;;;;;;;5122542;27;20547;-59
2023/12/07 00:14:24;;;;;;;1.65;1.55;;;;;;;;;;5124755;27;20115;-59
2023/12/07 00:16:50;;;;;;;1.88;1.67;;;;;;;;;;5122746;27;20039;-58
2023/12/07 00:19:16;;;;;;;1.90;1.52;;;;;;;;;;5122788;27;20209;-58
2023/12/07 00:21:42;;;;;;;1.60;1.50;;;;;;;;;;5121902;27;20042;-58
2023/12/07 00:24:08;;;;;;;1.63;1.52;;;;;;;;;;5121899;27;20031;-58
2023/12/07 00:26:34;;;;;;;1.02;0.95;;;;;;;;;;5119026;27;20039;-58
2023/12/07 00:29:00;;;;;;;1.48;1.38;;;;;;;;;;5119760;27;20401;-58
2023/12/07 00:31:26;;;;;;;1.23;1.13;;;;;;;;;;5118732;27;20047;-58
2023/12/07 00:33:52;;;;;;;1.83;1.73;;;;;;;;;;5100576;27;20051;-58
2023/12/07 00:36:18;;;;;;;2.30;2.05;;;;;;;;;;5121754;27;20039;-59
2023/12/07 00:38:45;;;;;;;2.22;2.03;;;;;;;;;;5116725;27;20130;-59
2023/12/07 00:41:11;;;;;;;2.10;2.00;;;;;;;;;;5121752;27;20047;-58
2023/12/07 00:43:37;;;;;;;2.40;2.20;;;;;;;;;;5117537;27;20043;-58
2023/12/07 00:46:03;;;;;;;2.22;2.03;;;;;;;;;;5120295;27;20036;-58
2023/12/07 00:48:29;;;;;;;2.97;2.67;;;;;;;;;;5120932;27;20066;-58
2023/12/07 00:50:55;;;;;;;2.75;2.53;;;;;;;;;;5113170;27;20114;-59
2023/12/07 00:53:21;;;;;;;2.63;2.42;;;;;;;;;;5118870;27;20522;-58
2023/12/07 00:55:47;;;;;;;1.88;1.77;;;;;;;;;;5123413;27;20058;-58
2023/12/07 00:58:13;;;;;;;1.88;1.77;;;;;;;;;;5118844;27;20070;-59
2023/12/07 01:00:39;;;;;;;1.90;1.80;;;;;;;;;;5120965;27;20458;-58
2023/12/07 01:03:05;;;;;;;2.10;1.90;;;;;;;;;;5125101;27;20043;-58
2023/12/07 01:05:32;;;;;;;2.10;1.95;;;;;;;;;;5119584;27;20047;-59
2023/12/07 01:07:58;;;;;;;2.08;1.90;;;;;;;;;;5123921;27;20028;-58
2023/12/07 01:10:24;;;;;;;1.90;1.70;;;;;;;;;;5122233;27;20039;-58
2023/12/07 01:12:50;;;;;;;1.80;1.70;;;;;;;;;;5118021;27;20035;-59
2023/12/07 01:15:16;;;;;;;2.30;2.10;;;;;;;;;;5121530;27;20035;-59
2023/12/07 01:17:42;;;;;;;2.25;2.05;;;;;;;;;;5118763;27;20518;-58
2023/12/07 01:20:12;;;;;;;2.47;2.28;;;;;;;;;;5121870;27;20031;-59
2023/12/07 01:22:41;;;;;;;2.47;2.28;;;;;;;;;;5121875;27;20035;-58
2023/12/07 01:25:07;;;;;;;2.50;2.30;;;;;;;;;;5119632;27;20035;-58
2023/12/07 01:27:34;;;;;;;2.78;2.55;;;;;;;;;;5120545;27;20043;-58
2023/12/07 01:30:00;;;;;;;3.35;3.05;;;;;;;;;;5117475;27;20039;-59
2023/12/07 01:32:26;;;;;;;2.72;2.53;;;;;;;;;;5120857;27;20035;-59
2023/12/07 01:34:52;;;;;;;2.75;2.55;;;;;;;;;;5117682;27;20139;-58
2023/12/07 01:37:18;;;;;;;2.88;2.67;;;;;;;;;;5115954;27;20107;-58
2023/12/07 01:39:44;;;;;;;2.92;2.72;;;;;;;;;;5116850;27;20031;-59
2023/12/07 01:42:12;;;;;;;2.30;2.10;;;;;;;;;;5118620;27;20051;-59
2023/12/07 01:44:38;;;;;;;1.75;1.65;;;;;;;;;;5116924;27;20079;-59
2023/12/07 01:47:04;;;;;;;1.98;1.88;;;;;;;;;;5118979;27;20078;-58
2023/12/07 01:49:31;;;;;;;3.28;2.97;;;;;;;;;;5120042;27;20059;-59
2023/12/07 01:51:57;;;;;;;3.25;2.95;;;;;;;;;;5121391;27;20042;-58
2023/12/07 01:54:24;;;;;;;3.55;3.25;;;;;;;;;;5116054;27;20047;-58
2023/12/07 01:56:51;;;;;;;2.90;2.53;;;;;;;;;;5118168;27;20457;-58
2023/12/07 01:59:17;;;;;;;2.83;2.63;;;;;;;;;;5117775;27;20058;-58
2023/12/07 02:01:43;;;;;;;3.00;2.70;;;;;;;;;;5119446;27;20135;-58
2023/12/07 02:04:10;;;;;;;3.20;2.95;;;;;;;;;;5117797;27;20042;-58
2023/12/07 02:06:36;;;;;;;3.90;3.60;;;;;;;;;;5118481;27;20054;-59
2023/12/07 02:09:02;;;;;;;3.33;3.10;;;;;;;;;;5121470;27;20130;-57
2023/12/07 02:11:28;;;;;;;3.97;3.30;;;;;;;;;;5122570;27;20043;-58
2023/12/07 02:13:57;;;;;;;4.03;3.70;;;;;;;;;;5122174;27;20036;-58
2023/12/07 02:16:30;;;;;;;3.05;2.75;;;;;;;;;;5120115;27;20108;-58
2023/12/07 02:18:56;;;;;;;2.45;2.25;;;;;;;;;;5119338;27;20103;-58
2023/12/07 02:21:28;;;;;;;3.22;2.55;;;;;;;;;;5120906;27;20058;-59
2023/12/07 02:23:55;;;;;;;2.35;2.15;;;;;;;;;;5119100;27;20517;-59
2023/12/07 02:26:22;;;;;;;2.70;2.30;;;;;;;;;;5119090;27;20485;-58
2023/12/07 02:28:48;;;;;;;2.17;2.00;;;;;;;;;;5116906;27;20092;-59
2023/12/07 02:31:14;;;;;;;1.90;1.80;;;;;;;;;;5119649;27;20032;-58
2023/12/07 02:33:40;;;;;;;1.98;1.77;;;;;;;;;;5112719;27;20041;-58
2023/12/07 02:36:06;;;;;;;2.10;1.90;;;;;;;;;;5118278;27;20624;-58
2023/12/07 02:38:32;;;;;;;2.30;2.10;;;;;;;;;;5116407;27;20070;-58
2023/12/07 02:40:59;;;;;;;2.33;2.13;;;;;;;;;;5117849;27;20875;-58
2023/12/07 02:43:26;;;;;;;2.22;2.03;;;;;;;;;;5114441;27;20154;-59
2023/12/07 02:45:52;;;;;;;2.88;2.67;;;;;;;;;;5113234;27;20035;-59
2023/12/07 02:48:18;;;;;;;2.20;2.00;;;;;;;;;;5118426;27;20146;-59
2023/12/07 02:50:44;;;;;;;3.10;2.67;;;;;;;;;;5113353;27;20047;-59
2023/12/07 02:53:10;;;;;;;2.35;2.15;;;;;;;;;;5116257;28;20031;-59
2023/12/07 02:55:36;;;;;;;2.35;2.15;;;;;;;;;;5118412;28;20680;-59
2023/12/07 02:58:02;;;;;;;3.03;2.40;;;;;;;;;;5119263;28;20554;-59
2023/12/07 03:00:28;;;;;;;3.03;2.75;;;;;;;;;;5120603;28;20073;-59
2023/12/07 03:02:54;;;;;;;2.60;2.40;;;;;;;;;;5118416;27;20067;-59
2023/12/07 03:05:20;;;;;;;3.55;3.03;;;;;;;;;;5119878;27;20407;-59
2023/12/07 03:07:46;;;;;;;2.75;2.55;;;;;;;;;;5121615;27;20761;-59
2023/12/07 03:10:12;;;;;;;3.20;2.83;;;;;;;;;;5118729;27;20051;-59
2023/12/07 03:12:38;;;;;;;2.92;2.72;;;;;;;;;;5120863;27;20147;-59
2023/12/07 03:15:04;;;;;;;2.53;2.33;;;;;;;;;;5121604;27;20691;-59
2023/12/07 03:17:30;;;;;;;2.08;1.88;;;;;;;;;;5123157;27;20039;-59
2023/12/07 03:19:56;;;;;;;2.72;2.53;;;;;;;;;;5120347;27;20525;-59
2023/12/07 03:22:22;;;;;;;2.15;1.95;;;;;;;;;;5122410;27;20086;-59
2023/12/07 03:24:49;;;;;;;2.38;2.17;;;;;;;;;;5119413;27;20126;-59
2023/12/07 03:27:15;;;;;;;1.95;1.83;;;;;;;;;;5121788;27;20043;-58
2023/12/07 03:29:41;;;;;;;2.20;2.00;;;;;;;;;;5127553;27;20126;-59
2023/12/07 03:32:08;;;;;;;2.30;2.10;;;;;;;;;;5123217;27;20043;-59
2023/12/07 03:34:34;;;;;;;2.10;1.77;;;;;;;;;;5125966;27;20039;-59
2023/12/07 03:37:00;;;;;;;1.73;1.63;;;;;;;;;;5124990;27;20031;-59
2023/12/07 03:39:26;;;;;;;1.90;1.80;;;;;;;;;;5121477;27;20046;-59
2023/12/07 03:41:52;;;;;;;1.80;1.70;;;;;;;;;;5123422;27;20036;-59
2023/12/07 03:44:18;;;;;;;1.92;1.83;;;;;;;;;;5122032;27;20054;-59
2023/12/07 03:46:44;;;;;;;2.30;2.10;;;;;;;;;;5118385;27;20671;-59
2023/12/07 03:49:10;;;;;;;3.25;2.95;;;;;;;;;;5121185;27;20051;-59
2023/12/07 03:51:36;;;;;;;2.63;2.42;;;;;;;;;;5120776;27;20051;-59
2023/12/07 03:54:03;;;;;;;3.22;2.40;;;;;;;;;;5119409;27;20055;-59
2023/12/07 03:56:30;;;;;;;2.92;2.60;;;;;;;;;;5117872;27;20043;-59
2023/12/07 03:58:56;;;;;;;2.75;2.55;;;;;;;;;;5120269;27;20096;-59
2023/12/07 04:01:26;;;;;;;2.67;2.47;;;;;;;;;;5122159;27;20051;-58
2023/12/07 04:03:53;;;;;;;3.45;3.15;;;;;;;;;;5118947;27;20062;-59
2023/12/07 04:06:20;;;;;;;3.50;3.20;;;;;;;;;;5123230;27;20035;-58
2023/12/07 04:08:46;;;;;;;3.78;3.47;;;;;;;;;;5118995;27;20039;-59
2023/12/07 04:11:12;;;;;;;4.35;3.95;;;;;;;;;;5120385;27;20054;-58
2023/12/07 04:13:38;;;;;;;3.70;3.40;;;;;;;;;;5120993;27;20121;-59
2023/12/07 04:16:05;;;;;;;3.70;3.33;;;;;;;;;;5118263;27;20458;-57
2023/12/07 04:18:31;;;;;;;3.40;3.10;;;;;;;;;;5117417;27;20052;-59
2023/12/07 04:20:57;;;;;;;2.92;2.67;;;;;;;;;;5121851;27;20071;-59
2023/12/07 04:23:23;;;;;;;3.25;2.67;;;;;;;;;;5121497;27;20051;-59
2023/12/07 04:25:49;;;;;;;2.38;2.17;;;;;;;;;;5119639;27;20966;-59
2023/12/07 04:28:15;;;;;;;2.33;2.13;;;;;;;;;;5121476;27;20067;-59
2023/12/07 04:30:41;;;;;;;3.22;2.92;;;;;;;;;;5121141;27;20041;-58
2023/12/07 04:33:07;;;;;;;3.67;3.33;;;;;;;;;;5123128;27;20031;-59
2023/12/07 04:35:34;;;;;;;2.50;2.30;;;;;;;;;;5122680;27;20087;-58
2023/12/07 04:38:00;;;;;;;2.50;2.30;;;;;;;;;;5122807;27;20039;-59
2023/12/07 04:40:26;;;;;;;2.80;2.50;;;;;;;;;;5119666;27;20503;-58
2023/12/07 04:42:53;;;;;;;2.85;2.65;;;;;;;;;;5121417;27;20035;-59
2023/12/07 04:45:19;;;;;;;3.05;2.85;;;;;;;;;;5123413;27;20039;-59
2023/12/07 04:47:45;;;;;;;2.58;2.38;;;;;;;;;;5120438;27;20183;-59
2023/12/07 04:50:11;;;;;;;3.40;3.05;;;;;;;;;;5121117;27;20452;-58
2023/12/07 04:52:38;;;;;;;3.65;3.35;;;;;;;;;;5125429;27;20054;-59
2023/12/07 04:55:06;;;;;;;3.25;2.95;;;;;;;;;;5118333;27;20514;-59
2023/12/07 04:57:32;;;;;;;4.85;4.03;;;;;;;;;;5116405;27;20039;-59
2023/12/07 04:59:58;;;;;;;5.18;4.70;;;;;;;;;;5123261;27;20092;-58
2023/12/07 05:02:24;;;;;;;4.95;4.40;;;;;;;;;;5116909;27;20126;-59
2023/12/07 05:04:50;;;;;;;5.07;4.57;;;;;;;;;;5116603;27;21699;-59
2023/12/07 05:07:17;;;;;;;5.05;4.65;;;;;;;;;;5116920;27;20180;-59
2023/12/07 05:09:43;;;;;;;6.38;5.28;;;;;;;;;;5101216;27;20054;-58
2023/12/07 05:12:09;;;;;;;5.95;5.20;;;;;;;;;;5120006;27;20039;-58
2023/12/07 05:14:35;;;;;;;5.93;5.40;;;;;;;;;;5116033;27;20035;-59
2023/12/07 05:17:01;;;;;;;5.78;4.95;;;;;;;;;;5118930;27;20382;-59
2023/12/07 05:19:27;;;;;;;5.38;4.80;;;;;;;;;;5121133;27;20418;-59
2023/12/07 05:21:53;;;;;;;5.88;4.50;;;;;;;;;;5118934;27;20045;-59
2023/12/07 05:24:20;;;;;;;5.88;4.10;;;;;;;;;;5121876;27;20427;-59
2023/12/07 05:26:46;;;;;;;4.35;3.95;;;;;;;;;;5119843;27;20031;-59
2023/12/07 05:29:12;;;;;;;5.30;4.80;;;;;;;;;;5119585;27;20769;-59
2023/12/07 05:31:39;;;;;;;4.28;3.88;;;;;;;;;;5123364;27;20031;-59
2023/12/07 05:34:05;;;;;;;4.72;4.25;;;;;;;;;;5120134;27;20062;-59
2023/12/07 05:36:31;;;;;;;5.05;4.30;;;;;;;;;;5118217;27;20069;-59
2023/12/07 05:38:57;;;;;;;6.70;4.90;;;;;;;;;;5119552;27;20495;-59
2023/12/07 05:41:23;;;;;;;5.70;5.15;;;;;;;;;;5121646;27;20134;-59
2023/12/07 05:43:51;;;;;;;6.63;5.90;;;;;;;;;;5118427;27;20130;-59
2023/12/07 05:46:17;;;;;;;5.40;4.90;;;;;;;;;;5118383;27;20048;-59
2023/12/07 05:48:43;;;;;;;6.60;5.32;;;;;;;;;;5119067;27;20051;-58
2023/12/07 05:51:16;;;;;;;5.72;5.13;;;;;;;;;;5120090;27;20067;-59
2023/12/07 05:53:42;;;;;;;6.65;5.70;;;;;;;;;;5115541;27;20035;-59
2023/12/07 05:56:09;;;;;;;7.93;6.45;;;;;;;;;;5117081;27;20530;-59
2023/12/07 05:58:35;;;;;;;6.35;5.60;;;;;;;;;;5094417;27;20457;-59
2023/12/07 06:01:02;;;;;;;6.72;5.43;;;;;;;;;;5113900;27;20657;-59
2023/12/07 06:03:28;;;;;;;6.68;5.78;;;;;;;;;;5112799;27;20031;-59
2023/12/07 06:05:55;;;;;;;5.90;5.28;;;;;;;;;;5117057;27;20078;-59
2023/12/07 06:08:21;;;;;;;6.10;5.50;;;;;;;;;;5117685;27;20632;-59
2023/12/07 06:10:47;;;;;;;6.53;5.80;;;;;;;;;;5115222;27;20044;-59
2023/12/07 06:13:13;;;;;;;5.53;4.90;;;;;;;;;;5118028;27;20073;-58
2023/12/07 06:15:39;;;;;;;7.95;6.30;;;;;;;;;;5116400;27;20039;-59
2023/12/07 06:18:05;;;;;;;7.22;6.45;;;;;;;;;;5119109;27;20047;-58
2023/12/07 06:20:31;;;;;;;7.10;5.95;;;;;;;;;;5113142;27;20087;-59
2023/12/07 06:22:58;;;;;;;8.25;6.05;;;;;;;;;;5121464;27;20487;-59
2023/12/07 06:25:24;;;;;;;6.65;5.47;;;;;;;;;;5120277;27;20467;-59
2023/12/07 06:27:50;;;;;;;5.75;4.63;;;;;;;;;;5119758;27;20039;-58
2023/12/07 06:30:17;;;;;;;5.00;4.50;;;;;;;;;;5122652;27;20089;-59
2023/12/07 06:32:43;;;;;;;7.72;5.03;;;;;;;;;;5117392;27;20040;-59
2023/12/07 06:35:12;;;;;;;6.63;5.75;;;;;;;;;;5118634;27;20114;-59
2023/12/07 06:37:40;;;;;;;5.43;4.80;;;;;;;;;;5123431;27;20047;-59
2023/12/07 06:40:09;;;;;;;6.53;5.75;;;;;;;;;;5118351;27;20896;-59
2023/12/07 06:42:35;;;;;;;6.57;5.50;;;;;;;;;;5116664;27;20066;-59
2023/12/07 06:45:02;;;;;;;5.45;4.90;;;;;;;;;;5118005;27;20078;-60
2023/12/07 06:47:28;;;;;;;5.38;4.55;;;;;;;;;;5122076;27;20051;-59
2023/12/07 06:49:54;;;;;;;5.97;5.38;;;;;;;;;;5118311;27;20173;-59
2023/12/07 06:52:20;;;;;;;5.95;5.25;;;;;;;;;;5119952;27;20039;-59
2023/12/07 06:54:46;;;;;;;6.18;5.18;;;;;;;;;;5120445;27;20087;-59
2023/12/07 06:57:12;;;;;;;6.18;5.13;;;;;;;;;;5120165;27;20046;-58
2023/12/07 06:59:38;;;;;;;5.38;4.80;;;;;;;;;;5115987;27;20051;-59
2023/12/07 07:02:04;;;;;;;5.60;4.97;;;;;;;;;;5115781;28;20134;-59
2023/12/07 07:04:30;;;;;;;5.35;4.85;;;;;;;;;;5114631;28;20553;-59
2023/12/07 07:06:57;;;;;;;5.22;4.70;;;;;;;;;;5118995;28;20043;-59
2023/12/07 07:09:22;;;;;;;4.55;4.15;;;;;;;;;;5116386;28;20054;-59
2023/12/07 07:11:49;;;;;;;4.40;3.90;;;;;;;;;;5113216;27;20114;-59
2023/12/07 07:14:15;;;;;;;4.25;3.55;;;;;;;;;;5115757;28;20472;-59
2023/12/07 07:16:41;;;;;;;4.53;4.13;;;;;;;;;;5116065;28;20082;-59
2023/12/07 07:19:08;;;;;;;4.90;4.00;;;;;;;;;;5116215;28;20053;-59
2023/12/07 07:21:34;;;;;;;4.40;3.88;;;;;;;;;;5117778;28;20063;-59
2023/12/07 07:24:00;;;;;;;4.00;3.63;;;;;;;;;;5114124;27;20089;-58
2023/12/07 07:26:26;;;;;;;4.00;3.60;;;;;;;;;;5117032;27;20039;-60
2023/12/07 07:28:53;;;;;;;3.30;3.00;;;;;;;;;;5123336;28;20130;-58
2023/12/07 07:31:19;;;;;;;3.35;2.60;;;;;;;;;;5119072;28;20092;-59
2023/12/07 07:33:49;;;;;;;3.15;2.83;;;;;;;;;;5118611;28;20483;-59
2023/12/07 07:36:15;;;;;;;3.35;2.67;;;;;;;;;;5118426;28;20049;-59
2023/12/07 07:38:41;;;;;;;2.60;2.40;;;;;;;;;;5117755;28;20536;-59
2023/12/07 07:41:07;;;;;;;2.67;2.47;;;;;;;;;;5118890;28;20133;-59
2023/12/07 07:43:36;;;;;;;2.90;2.60;;;;;;;;;;5120099;28;20158;-59
2023/12/07 07:46:03;;;;;;;2.90;2.70;;;;;;;;;;5117069;28;20093;-59
2023/12/07 07:48:29;;;;;;;3.55;2.65;;;;;;;;;;5120590;27;20051;-59
2023/12/07 07:50:55;;;;;;;2.20;1.92;;;;;;;;;;5122400;27;20520;-58
2023/12/07 07:53:21;;;;;;;2.30;2.10;;;;;;;;;;5121542;27;20047;-59
2023/12/07 07:55:47;;;;;;;2.10;1.90;;;;;;;;;;5122387;27;20095;-58
2023/12/07 07:58:13;;;;;;;2.03;1.83;;;;;;;;;;5121240;27;20070;-58
2023/12/07 08:00:39;;;;;;;2.15;1.80;;;;;;;;;;5119080;27;20042;-58
2023/12/07 08:03:05;;;;;;;2.83;2.15;;;;;;;;;;5121095;27;20027;-59
2023/12/07 08:05:31;;;;;;;2.42;2.17;;;;;;;;;;5119262;27;20084;-59
2023/12/07 08:07:57;;;;;;;1.70;1.60;;;;;;;;;;5116144;27;20426;-59
2023/12/07 08:10:24;;;;;;;1.83;1.63;;;;;;;;;;5115218;27;20046;-59
2023/12/07 08:12:50;;;;;;;2.10;1.95;;;;;;;;;;5114753;27;20739;-59
2023/12/07 08:15:16;;;;;;;2.50;1.92;;;;;;;;;;5119339;27;20749;-59
2023/12/07 08:17:42;;;;;;;2.42;2.22;;;;;;;;;;5121026;27;20047;-59
2023/12/07 08:20:10;;;;;;;3.65;2.90;;;;;;;;;;5122235;27;20034;-58
2023/12/07 08:22:36;;;;;;;4.35;3.92;;;;;;;;;;5124458;27;20495;-59
2023/12/07 08:25:05;;;;;;;4.00;3.60;;;;;;;;;;5126846;27;20039;-59
2023/12/07 08:27:31;;;;;;;3.85;3.45;;;;;;;;;;5126297;27;20475;-58
2023/12/07 08:29:57;;;;;;;6.82;5.20;;;;;;;;;;5123528;27;20054;-59
2023/12/07 08:32:25;;;;;;;4.55;3.92;;;;;;;;;;5126078;27;20086;-59
2023/12/07 08:34:51;;;;;;;5.60;4.45;;;;;;;;;;5124334;27;20190;-59
2023/12/07 08:37:17;;;;;;;5.00;4.50;;;;;;;;;;5124908;27;20096;-59
2023/12/07 08:39:43;;;;;;;4.45;3.95;;;;;;;;;;5126849;27;20031;-59
2023/12/07 08:42:09;;;;;;;5.63;5.13;;;;;;;;;;5119327;27;20441;-58
2023/12/07 08:44:35;;;;;;;4.95;4.45;;;;;;;;;;5123470;27;20556;-59
2023/12/07 08:47:02;;;;;;;4.65;3.88;;;;;;;;;;5115779;27;20039;-59
2023/12/07 08:49:28;;;;;;;3.55;3.25;;;;;;;;;;5115319;27;20096;-59
2023/12/07 08:51:54;;;;;;;4.10;3.55;;;;;;;;;;5118118;27;20482;-54
2023/12/07 08:54:20;;;;;;;3.80;3.35;;;;;;;;;;5121665;27;20043;-53
2023/12/07 08:56:46;;;;;;;4.20;3.65;;;;;;;;;;5126440;27;20031;-58
2023/12/07 08:59:12;;;;;;;4.50;3.72;;;;;;;;;;5128179;27;20122;-58
2023/12/07 09:01:38;;;;;;;4.85;3.60;;;;;;;;;;5126792;27;20107;-59
2023/12/07 09:04:05;;;;;;;3.85;3.40;;;;;;;;;;5123141;27;20107;-59
2023/12/07 09:06:31;;;;;;;3.22;2.92;;;;;;;;;;5127059;27;20092;-59
2023/12/07 09:08:57;;;;;;;3.88;2.97;;;;;;;;;;5126199;27;20118;-59
2023/12/07 09:11:23;;;;;;;4.43;3.88;;;;;;;;;;5126849;27;20074;-59
2023/12/07 09:13:49;;;;;;;5.10;4.60;;;;;;;;;;5126588;27;20448;-60
2023/12/07 09:16:15;;;;;;;5.43;4.65;;;;;;;;;;5127837;27;20075;-60
2023/12/07 09:18:47;;;;;;;6.57;4.50;;;;;;;;;;5117535;27;20043;-60
2023/12/07 09:21:13;;;;;;;7.53;5.70;;;;;;;;;;5123194;27;20035;-60
2023/12/07 09:23:39;;;;;;;6.47;5.75;;;;;;;;;;5118018;27;20558;-59
2023/12/07 09:26:05;;;;;;;9.25;7.40;;;;;;;;;;5123482;27;20128;-59
2023/12/07 09:28:33;;;;;;;8.95;7.15;;;;;;;;;;5121467;27;20384;-62
2023/12/07 09:30:59;;;;;;;12.65;8.00;;;;;;;;;;5124264;27;20039;-60
2023/12/07 09:33:25;;;;;;;10.30;8.27;;;;;;;;;;5120990;27;20042;-60
2023/12/07 09:35:51;;;;;;;9.15;6.90;;;;;;;;;;5120426;27;20036;-60
2023/12/07 09:38:17;;;;;;;9.38;6.90;;;;;;;;;;5115604;27;20559;-60
2023/12/07 09:40:43;;;;;;;7.88;6.90;;;;;;;;;;5121844;27;20091;-59
2023/12/07 09:43:09;;;;;;;9.23;6.82;;;;;;;;;;5122677;27;20035;-59
2023/12/07 09:45:35;;;;;;;9.15;7.38;;;;;;;;;;5124224;27;20041;-59
2023/12/07 09:48:02;;;;;;;10.80;8.27;;;;;;;;;;5123566;27;20039;-59
2023/12/07 09:50:28;;;;;;;11.23;9.00;;;;;;;;;;5118363;27;20040;-60
2023/12/07 09:52:56;;;;;;;14.40;10.18;;;;;;;;;;5112825;27;20554;-60
2023/12/07 09:55:23;;;;;;;13.35;10.48;;;;;;;;;;5110164;27;20163;-59
2023/12/07 09:57:50;;;;;;;14.43;9.23;;;;;;;;;;5121026;27;20479;-59
2023/12/07 10:00:17;;;;;;;12.65;10.25;;;;;;;;;;5124339;27;20051;-59
2023/12/07 10:02:45;;;;;;;11.65;9.13;;;;;;;;;;5120519;27;20054;-59
2023/12/07 10:05:16;;;;;;;12.55;9.02;;;;;;;;;;5126596;27;20038;-59
2023/12/07 10:07:43;;;;;;;10.70;8.38;;;;;;;;;;5115495;27;20043;-60
2023/12/07 10:10:11;;;;;;;13.00;10.15;;;;;;;;;;5122646;27;20069;-60
2023/12/07 10:12:46;;;;;;;15.95;11.32;;;;;;;;;;5116481;27;20043;-59
2023/12/07 10:15:13;;;;;;;12.35;9.73;;;;;;;;;;5120051;27;20131;-59
2023/12/07 10:17:56;;;;;;;13.82;10.43;;;;;;;;;;5122484;27;20124;-59
2023/12/07 10:20:23;;;;;;;10.73;9.07;;;;;;;;;;5119263;27;20050;-59
2023/12/07 10:22:50;;;;;;;15.35;11.65;;;;;;;;;;5121193;27;20054;-59
2023/12/07 10:25:16;;;;;;;14.30;10.95;;;;;;;;;;5120362;27;20539;-59
2023/12/07 10:27:45;;;;;;;13.10;10.63;;;;;;;;;;5122066;27;20463;-59
2023/12/07 10:30:12;;;;;;;12.25;9.10;;;;;;;;;;5120286;27;20039;-60
2023/12/07 10:32:39;;;;;;;14.65;11.13;;;;;;;;;;5120956;27;20495;-59
2023/12/07 10:35:06;;;;;;;13.30;10.43;;;;;;;;;;5118376;27;20447;-59
2023/12/07 10:37:32;;;;;;;12.00;10.05;;;;;;;;;;5119148;27;20031;-59
2023/12/07 10:39:58;;;;;;;14.35;11.40;;;;;;;;;;5122629;27;20039;-59
2023/12/07 10:42:25;;;;;;;15.50;12.43;;;;;;;;;;5123220;27;20684;-59
2023/12/07 10:44:53;;;;;;;16.25;12.07;;;;;;;;;;5121060;27;20051;-59
2023/12/07 10:47:20;;;;;;;14.85;11.85;;;;;;;;;;5119185;27;20086;-60
2023/12/07 10:49:46;;;;;;;14.30;11.52;;;;;;;;;;5121108;27;20126;-60
2023/12/07 10:52:15;;;;;;;15.40;11.32;;;;;;;;;;5121059;27;20561;-60
2023/12/07 10:55:03;;;;;;;15.45;11.75;;;;;;;;;;5119898;27;20074;-60
2023/12/07 10:57:30;;;;;;;11.82;9.00;;;;;;;;;;5124514;27;20039;-59
2023/12/07 10:59:57;;;;;;;11.07;9.20;;;;;;;;;;5125840;28;20039;-60
2023/12/07 11:02:24;;;;;;;12.45;10.13;;;;;;;;;;5123722;28;20501;-59
2023/12/07 11:04:51;;;;;;;14.13;11.02;;;;;;;;;;5124726;28;20039;-59
2023/12/07 11:07:22;;;;;;;11.63;9.18;;;;;;;;;;5121049;28;20138;-59
2023/12/07 11:09:52;;;;;;;10.75;9.15;;;;;;;;;;5101029;28;20460;-59
2023/12/07 11:12:21;;;;;;;10.75;8.75;;;;;;;;;;5126590;28;20043;-60
2023/12/07 11:14:47;;;;;;;9.20;8.25;;;;;;;;;;5118996;27;20428;-60
2023/12/07 11:17:13;;;;;;;12.05;9.02;;;;;;;;;;5126087;28;20111;-60
2023/12/07 11:19:43;;;;;;;11.43;8.93;;;;;;;;;;5121482;27;20507;-60
2023/12/07 11:22:13;;;;;;;9.43;8.40;;;;;;;;;;5117730;28;20066;-60
2023/12/07 11:24:52;;;;;;;12.45;9.50;;;;;;;;;;5129490;27;20054;-60
2023/12/07 11:27:18;;;;;;;11.35;9.40;;;;;;;;;;5115229;27;20048;-60
2023/12/07 11:29:46;;;;;;;12.48;9.73;;;;;;;;;;5120414;27;20110;-60
2023/12/07 11:32:12;;;;;;;10.35;8.40;;;;;;;;;;5124590;27;20384;-59
2023/12/07 11:34:39;;;;;;;9.02;7.95;;;;;;;;;;5126490;27;20042;-59
2023/12/07 11:37:05;;;;;;;9.48;8.02;;;;;;;;;;5119840;27;20043;-59
2023/12/07 11:39:38;;;;;;;12.15;8.95;;;;;;;;;;5126236;27;20027;-60
2023/12/07 11:42:10;;;;;;;9.05;7.95;;;;;;;;;;5123295;27;20505;-59
2023/12/07 11:44:40;;;;;;;10.27;8.60;;;;;;;;;;5116335;27;20035;-59
2023/12/07 11:47:07;;;;;;;9.30;7.90;;;;;;;;;;5116766;27;20562;-59
2023/12/07 11:49:33;;;;;;;7.70;6.93;;;;;;;;;;5120130;27;20055;-59
2023/12/07 11:51:59;;;;;;;11.45;9.35;;;;;;;;;;5112398;27;20100;-60
2023/12/07 11:54:26;;;;;;;10.52;9.43;;;;;;;;;;5117900;27;20122;-59
2023/12/07 11:56:56;;;;;;;11.35;8.85;;;;;;;;;;5116347;27;20047;-56
2023/12/07 11:59:22;;;;;;;9.82;8.82;;;;;;;;;;5114411;27;20050;-59
2023/12/07 12:01:52;;;;;;;13.23;10.63;;;;;;;;;;5115347;27;20047;-61
2023/12/07 12:04:18;;;;;;;14.13;10.52;;;;;;;;;;5113120;27;20332;-60
2023/12/07 12:06:45;;;;;;;16.17;11.90;;;;;;;;;;5121538;27;20044;-60
2023/12/07 12:09:17;;;;;;;15.80;11.85;;;;;;;;;;5122501;27;20046;-59
2023/12/07 12:11:43;;;;;;;;;;;;;;;;;;5130150;27;20047;-60
2023/12/07 12:14:09;;;;;;;18.58;14.60;;;;;;;;;;5128547;27;19953;-60
2023/12/07 12:16:36;;;;;;;17.25;14.57;;;;;;;;;;5129171;27;20049;-60
2023/12/07 12:19:02;;;;;;;16.20;13.70;;;;;;;;;;5129290;27;20057;-60
2023/12/07 12:21:28;;;;;;;22.25;15.70;;;;;;;;;;5128811;27;20031;-59
2023/12/07 12:23:54;;;;;;;21.83;15.57;;;;;;;;;;5127997;27;20698;-60
2023/12/07 12:26:20;;;;;;;17.17;13.75;;;;;;;;;;5126403;27;20053;-60
2023/12/07 12:28:47;;;;;;;20.05;14.10;;;;;;;;;;5127833;27;20043;-60
2023/12/07 12:31:13;;;;;;;17.52;14.13;;;;;;;;;;5127592;27;20287;-60
2023/12/07 12:33:39;;;;;;;17.83;13.50;;;;;;;;;;5123319;27;20027;-60
2023/12/07 12:36:06;;;;;;;18.10;14.18;;;;;;;;;;5118106;27;20089;-59
2023/12/07 12:38:33;;;;;;;15.43;12.88;;;;;;;;;;5121063;27;20035;-60
2023/12/07 12:40:59;;;;;;;20.98;15.10;;;;;;;;;;5124853;27;20427;-59
2023/12/07 12:43:25;;;;;;;18.30;14.95;;;;;;;;;;5125111;27;20043;-60
2023/12/07 12:45:51;;;;;;;17.75;15.50;;;;;;;;;;5120931;27;20450;-60
2023/12/07 12:48:18;;;;;;;20.52;15.85;;;;;;;;;;5118938;27;20532;-60
2023/12/07 12:50:44;;;;;;;19.85;15.52;;;;;;;;;;5120143;27;20032;-60
2023/12/07 12:53:11;;;;;;;17.58;14.32;;;;;;;;;;5120483;27;20079;-60
2023/12/07 12:55:38;;;;;;;19.33;14.43;;;;;;;;;;5099447;27;20129;-60
2023/12/07 12:58:04;;;;;;;19.27;14.45;;;;;;;;;;5118177;27;20055;-60
2023/12/07 13:00:34;;;;;;;20.85;15.32;;;;;;;;;;5123030;27;20477;-60
2023/12/07 13:03:04;;;;;;;18.67;14.48;;;;;;;;;;5116266;27;20492;-60
2023/12/07 13:05:30;;;;;;;18.70;14.90;;;;;;;;;;5109775;27;20085;-60
2023/12/07 13:07:56;;;;;;;22.45;15.68;;;;;;;;;;5109264;27;20078;-59
2023/12/07 13:10:22;;;;;;;20.15;14.55;;;;;;;;;;5114203;27;20035;-61
2023/12/07 13:12:48;;;;;;;19.58;14.73;;;;;;;;;;5121133;27;20039;-61
2023/12/07 13:15:15;;;;;;;21.15;15.52;;;;;;;;;;5116042;27;20508;-59
2023/12/07 13:17:41;;;;;;;19.92;14.70;;;;;;;;;;5117360;27;20556;-60
2023/12/07 13:20:10;;;;;;;18.73;12.82;;;;;;;;;;5116016;27;20038;-60
2023/12/07 13:22:46;;;;;;;16.25;12.30;;;;;;;;;;5121427;27;20053;-60
2023/12/07 13:25:14;;;;;;;17.90;12.70;;;;;;;;;;5116832;27;20031;-60
2023/12/07 13:27:40;;;;;;;17.42;13.07;;;;;;;;;;5117252;27;20046;-60
2023/12/07 13:30:07;;;;;;;14.85;11.60;;;;;;;;;;5119913;27;20404;-60
2023/12/07 13:32:39;;;;;;;14.65;11.63;;;;;;;;;;5119638;27;20676;-60
2023/12/07 13:35:05;;;;;;;;;;;;;;;;;;5123654;27;20134;-60
2023/12/07 13:37:32;;;;;;;14.00;10.40;;;;;;;;;;5123993;27;19938;-60
2023/12/07 13:39:59;;;;;;;13.68;10.00;;;;;;;;;;5115692;27;20484;-59
2023/12/07 13:42:26;;;;;;;14.25;11.30;;;;;;;;;;5115030;27;20045;-60
2023/12/07 13:45:01;;;;;;;17.55;13.57;;;;;;;;;;5119091;27;20035;-60
2023/12/07 13:47:31;;;;;;;18.27;13.15;;;;;;;;;;5116760;27;20044;-60
2023/12/07 13:50:03;;;;;;;15.82;12.80;;;;;;;;;;5118665;27;20062;-60
2023/12/07 13:52:29;;;;;;;17.58;13.27;;;;;;;;;;5120344;27;20047;-60
2023/12/07 13:54:55;;;;;;;16.83;12.48;;;;;;;;;;5126707;27;20035;-60
2023/12/07 13:57:24;;;;;;;16.60;12.13;;;;;;;;;;5126590;27;20448;-60
2023/12/07 13:59:50;;;;;;;14.40;11.70;;;;;;;;;;5126067;27;20042;-60
2023/12/07 14:02:16;;;;;;;17.08;11.80;;;;;;;;;;5127212;27;20035;-59
2023/12/07 14:04:42;;;;;;;16.75;10.93;;;;;;;;;;5124794;27;20046;-61
2023/12/07 14:07:12;;;;;;;15.18;11.68;;;;;;;;;;5125382;27;20047;-60
2023/12/07 14:09:38;;;;;;;13.23;11.50;;;;;;;;;;5125502;27;20062;-60
2023/12/07 14:12:05;;;;;;;17.98;11.77;;;;;;;;;;5106495;27;20039;-60
2023/12/07 14:14:31;;;;;;;17.65;12.27;;;;;;;;;;5125524;27;20043;-60
2023/12/07 14:16:57;;;;;;;14.80;11.18;;;;;;;;;;5125224;27;20402;-61
2023/12/07 14:19:23;;;;;;;20.38;12.70;;;;;;;;;;5125393;27;20556;-60
2023/12/07 14:21:49;;;;;;;20.38;12.43;;;;;;;;;;5127086;27;20092;-60
2023/12/07 14:24:15;;;;;;;18.83;12.43;;;;;;;;;;5127387;27;20043;-61
2023/12/07 14:26:44;;;;;;;18.00;12.07;;;;;;;;;;5125998;27;20107;-60
2023/12/07 14:29:14;;;;;;;17.52;11.93;;;;;;;;;;5126736;27;20546;-60
2023/12/07 14:31:41;;;;;;;19.00;12.20;;;;;;;;;;5126667;27;20541;-60
2023/12/07 14:34:07;;;;;;;19.98;12.52;;;;;;;;;;5125861;27;20035;-60